createdAt,value
2023-02-01T20:08:59.771Z,9.07
2023-02-01T20:11:27.420Z,11.13
2023-02-01T20:14:00.257Z,13.10
2023-02-01T20:16:27.847Z,10.70
2023-02-01T20:18:55.095Z,7.30
2023-02-01T20:21:25.436Z,7.07
2023-02-01T20:23:52.703Z,9.52
2023-02-01T20:26:24.795Z,8.50
2023-02-01T20:28:51.931Z,11.48
2023-02-01T20:31:19.565Z,10.07
2023-02-01T20:33:46.583Z,15.52
2023-02-01T20:36:14.111Z,15.85
2023-02-01T20:38:41.317Z,15.63
2023-02-01T20:41:09.332Z,15.02
2023-02-01T20:43:36.926Z,9.52
2023-02-01T20:46:04.613Z,11.70
2023-02-01T20:48:32.852Z,10.88
2023-02-01T20:51:01.018Z,14.52
2023-02-01T20:53:28.973Z,15.75
2023-02-01T20:55:58.444Z,21.70
2023-02-01T20:58:27.137Z,31.25
2023-02-01T21:00:57.009Z,27.80
2023-02-01T21:03:26.123Z,18.17
2023-02-01T21:05:56.677Z,19.10
2023-02-01T21:08:25.787Z,16.10
2023-02-01T21:10:58.733Z,12.95
2023-02-01T21:13:26.503Z,10.23
2023-02-01T21:15:54.204Z,14.82
2023-02-01T21:18:21.667Z,10.85
2023-02-01T21:20:49.495Z,9.98
2023-02-01T21:23:16.815Z,8.65
2023-02-01T21:25:44.674Z,7.10
2023-02-01T21:28:12.209Z,5.63
2023-02-01T21:30:39.762Z,4.75
2023-02-01T21:33:08.057Z,5.85
2023-02-01T21:35:35.507Z,9.10
2023-02-01T21:38:02.707Z,7.22
2023-02-01T21:40:30.151Z,9.70
2023-02-01T21:42:57.363Z,9.68
2023-02-01T21:45:25.039Z,6.53
2023-02-01T21:47:52.549Z,6.82
2023-02-01T21:50:20.573Z,9.68
2023-02-01T21:52:47.743Z,12.68
2023-02-01T21:55:15.234Z,12.32
2023-02-01T21:57:42.588Z,9.73
2023-02-01T22:00:12.159Z,7.65
2023-02-01T22:02:40.051Z,9.38
2023-02-01T22:05:07.573Z,7.30
2023-02-01T22:07:36.360Z,6.47
2023-02-01T22:10:04.133Z,5.93
2023-02-01T22:12:31.189Z,8.35
2023-02-01T22:14:58.563Z,11.38
2023-02-01T22:17:25.735Z,12.40
2023-02-01T22:19:53.124Z,8.07
2023-02-01T22:22:20.199Z,6.30
2023-02-01T22:24:48.026Z,7.07
2023-02-01T22:27:15.161Z,6.38
2023-02-01T22:29:43.411Z,9.60
2023-02-01T22:32:13.389Z,6.88
2023-02-01T22:34:40.970Z,9.77
2023-02-01T22:37:08.061Z,7.05
2023-02-01T22:39:35.451Z,8.25
2023-02-01T22:42:03.573Z,7.63
2023-02-01T22:44:31.262Z,6.95
2023-02-01T22:46:58.461Z,8.68
2023-02-01T22:49:25.909Z,10.45
2023-02-01T22:51:52.937Z,7.85
2023-02-01T22:54:23.679Z,7.45
2023-02-01T22:56:50.858Z,5.68
2023-02-01T22:59:18.291Z,6.75
2023-02-01T23:01:45.546Z,8.50
2023-02-01T23:04:14.338Z,8.15
2023-02-01T23:06:41.653Z,5.00
2023-02-01T23:09:14.260Z,6.07
2023-02-01T23:11:42.479Z,6.28
2023-02-01T23:14:10.264Z,7.15
2023-02-01T23:16:37.405Z,4.43
2023-02-01T23:19:05.359Z,4.22
2023-02-01T23:21:32.386Z,3.53
2023-02-01T23:24:00.330Z,3.85
2023-02-01T23:26:28.845Z,3.05
2023-02-01T23:28:57.028Z,4.63
2023-02-01T23:31:26.177Z,4.35
2023-02-01T23:33:55.265Z,3.88
2023-02-01T23:36:23.313Z,3.20
2023-02-01T23:38:51.151Z,6.85
2023-02-01T23:41:19.834Z,7.10
2023-02-01T23:43:59.257Z,5.07
2023-02-01T23:46:32.129Z,4.45
2023-02-01T23:49:00.894Z,3.35
2023-02-01T23:51:28.302Z,4.88
2023-02-01T23:53:56.008Z,6.70
2023-02-01T23:56:27.498Z,2.83
2023-02-01T23:58:57.028Z,7.60
